Time;durP1;ratioP1;P1;durP2;ratioP2;P2;SDS_P1;SDS_P2;PMS_P1;PMS_P2;Temp;Humidity;BMP_temperature;BMP_pressure;BME280_temperature;BME280_humidity;BME280_pressure;Samples;Min_cycle;Max_cycle;Signal;HPM_P1;HPM_P2
2021/09/24 00:01:27;;;;;;;7.63;5.40;;;13.80;73.70;;;12.91;80.32;98024.56;5065701;28;20552;-80
2021/09/24 00:03:55;;;;;;;6.00;5.30;;;13.80;73.50;;;12.97;79.98;98026.38;5063595;28;21008;-79
2021/09/24 00:06:22;;;;;;;6.13;5.53;;;13.90;73.70;;;12.75;80.82;98020.63;5066309;28;20511;-78
2021/09/24 00:08:49;;;;;;;7.93;5.70;;;13.70;73.90;;;12.63;81.30;98009.72;5068883;28;20558;-78
2021/09/24 00:11:16;;;;;;;5.87;5.37;;;13.70;74.60;;;12.76;81.29;98016.84;5066051;28;20444;-80
2021/09/24 00:13:44;;;;;;;6.13;5.63;;;13.60;75.10;;;12.99;80.13;98010.69;5069447;28;20551;-78
2021/09/24 00:16:11;;;;;;;6.80;5.87;;;13.80;75.00;;;12.82;80.34;98012.41;5082722;28;20480;-79
2021/09/24 00:18:38;;;;;;;6.00;5.40;;;13.80;74.40;;;12.77;80.96;98023.94;5063925;28;20511;-78
2021/09/24 00:21:07;;;;;;;7.63;5.90;;;13.70;74.80;;;12.66;81.50;98028.25;5067305;28;20464;-77
2021/09/24 00:23:34;;;;;;;5.33;4.80;;;13.60;75.10;;;12.73;81.26;98023.56;5064968;28;20648;-78
2021/09/24 00:26:01;;;;;;;6.53;5.80;;;13.60;75.60;;;12.49;82.65;98022.63;5064563;28;20504;-78
2021/09/24 00:28:28;;;;;;;6.80;6.20;;;13.50;76.00;;;12.50;82.26;98029.69;5065576;28;20552;-78
2021/09/24 00:30:54;;;;;;;6.73;6.10;;;13.50;76.50;;;12.41;82.97;98031.88;5069303;28;20464;-78
2021/09/24 00:33:21;;;;;;;7.00;5.37;;;13.40;77.00;;;12.47;83.06;98030.16;5065943;28;20510;-78
2021/09/24 00:35:48;;;;;;;7.20;5.77;;;13.40;77.60;;;12.38;83.45;98026.94;5067288;28;20495;-78
2021/09/24 00:38:17;;;;;;;7.43;6.00;;;13.30;77.80;;;12.34;83.47;98033.84;5063980;28;20649;-78
2021/09/24 00:40:44;;;;;;;6.30;5.70;;;13.30;78.20;;;12.39;82.78;98017.75;5065815;28;20514;-79
2021/09/24 00:43:11;;;;;;;6.80;5.50;;;13.30;78.20;;;12.27;84.11;98027.69;5065200;28;20471;-77
2021/09/24 00:45:38;;;;;;;6.53;5.90;;;13.20;78.60;;;12.30;83.80;98021.81;5064620;28;20567;-78
2021/09/24 00:48:05;;;;;;;6.43;5.83;;;13.20;79.30;;;12.30;83.91;98016.38;5063994;28;20524;-79
2021/09/24 00:50:32;;;;;;;6.10;5.50;;;13.20;79.70;;;12.37;83.37;98025.28;5064949;28;20552;-80
2021/09/24 00:53:00;;;;;;;6.97;6.30;;;13.30;79.00;;;12.17;84.32;98030.91;5066522;28;20452;-80
2021/09/24 00:55:29;;;;;;;7.30;5.63;;;13.20;79.50;;;12.22;83.88;98030.25;5062479;28;20519;-80
2021/09/24 00:57:56;;;;;;;6.27;5.67;;;13.20;79.80;;;12.18;84.11;98021.75;5061130;28;20477;-80
2021/09/24 01:00:24;;;;;;;6.90;6.30;;;13.20;79.80;;;12.12;84.49;98012.63;5065386;28;20456;-79
2021/09/24 01:02:51;;;;;;;6.00;5.40;;;13.10;80.50;;;12.22;83.88;98032.97;5062818;28;20547;-80
2021/09/24 01:05:18;;;;;;;7.27;5.87;;;13.10;80.50;;;12.14;84.30;98023.25;5060710;28;20482;-80
2021/09/24 01:07:46;;;;;;;6.03;5.43;;;13.10;80.70;;;12.04;85.10;98021.03;5062740;28;20460;-80
2021/09/24 01:10:16;;;;;;;6.80;5.70;;;13.00;81.20;;;12.11;85.05;98027.22;5064945;28;20959;-79
2021/09/24 01:12:45;;;;;;;6.43;5.83;;;13.00;81.60;;;12.35;83.66;98032.78;5063593;28;20531;-78
2021/09/24 01:15:15;;;;;;;6.23;5.50;;;13.10;80.90;;;12.14;84.32;98015.94;5061288;28;20479;-78
2021/09/24 01:17:42;;;;;;;10.03;6.50;;;13.10;80.90;;;12.17;84.53;98020.91;5066457;28;20525;-78
2021/09/24 01:20:13;;;;;;;6.80;6.07;;;13.10;81.70;;;12.28;83.53;98018.50;5058332;28;20544;-78
2021/09/24 01:22:42;;;;;;;7.40;6.30;;;13.20;81.10;;;12.21;83.97;98028.56;5062594;28;20554;-78
2021/09/24 01:25:13;;;;;;;7.13;6.37;;;13.10;80.90;;;12.22;84.08;98014.81;5062683;28;20488;-78
2021/09/24 01:27:40;;;;;;;6.80;6.20;;;13.20;81.00;;;12.17;84.47;98007.34;5063231;28;20657;-78
2021/09/24 01:30:09;;;;;;;7.87;5.80;;;13.10;81.00;;;12.11;84.64;98010.97;5066112;28;20543;-76
2021/09/24 01:32:36;;;;;;;6.43;5.87;;;13.10;81.50;;;11.97;85.03;98010.25;5062934;28;20484;-77
2021/09/24 01:35:07;;;;;;;7.10;6.27;;;13.00;81.90;;;12.11;84.69;98019.09;5063396;28;20567;-77
2021/09/24 01:37:33;;;;;;;6.43;5.87;;;13.00;81.90;;;12.06;84.93;98016.25;5056544;28;20457;-77
2021/09/24 01:40:02;;;;;;;6.57;5.90;;;13.00;82.00;;;12.12;84.57;98012.63;5058425;28;20481;-77
2021/09/24 01:42:29;;;;;;;5.73;5.10;;;13.00;81.80;;;12.00;85.29;98004.41;5062869;28;20543;-77
2021/09/24 01:44:56;;;;;;;7.67;6.13;;;13.00;82.00;;;12.02;85.02;98009.63;5063406;28;20484;-77
2021/09/24 01:47:23;;;;;;;5.97;5.47;;;13.00;82.10;;;11.96;85.50;97996.97;5058080;28;20510;-77
2021/09/24 01:49:50;;;;;;;8.50;6.40;;;12.90;82.30;;;12.04;85.38;98002.09;5067507;28;20456;-79
2021/09/24 01:52:17;;;;;;;6.67;6.07;;;13.00;82.60;;;12.08;85.08;97995.19;5062318;28;20547;-77
2021/09/24 01:54:44;;;;;;;7.37;5.73;;;13.00;82.10;;;11.99;85.16;97994.63;5066288;28;20472;-78
2021/09/24 01:57:12;;;;;;;8.00;6.07;;;13.00;82.50;;;11.88;86.16;97996.19;5067570;28;20544;-78
2021/09/24 01:59:39;;;;;;;9.13;6.40;;;12.90;83.00;;;11.83;86.09;97993.34;5063482;28;20469;-77
2021/09/24 02:02:06;;;;;;;7.37;5.90;;;12.80;83.30;;;11.77;86.77;97988.81;5065111;28;20545;-78
2021/09/24 02:04:33;;;;;;;7.27;6.10;;;12.70;83.60;;;11.83;86.15;97998.75;5063418;28;20468;-78
2021/09/24 02:07:00;;;;;;;9.80;6.03;;;12.70;84.00;;;11.76;86.71;97998.00;5062345;28;20492;-77
2021/09/24 02:09:27;;;;;;;6.67;6.10;;;12.70;83.90;;;11.79;87.01;97989.44;5063345;28;20470;-77
2021/09/24 02:11:54;;;;;;;8.07;6.50;;;12.70;84.40;;;11.84;86.47;97995.00;5066524;28;20550;-78
2021/09/24 02:14:23;;;;;;;9.80;6.17;;;12.70;84.50;;;11.79;86.83;97991.28;5060805;28;20925;-79
2021/09/24 02:16:50;;;;;;;9.43;6.47;;;12.80;84.50;;;11.75;87.41;97985.50;5060502;28;20510;-77
2021/09/24 02:19:17;;;;;;;6.53;5.93;;;12.70;84.60;;;11.75;86.82;97986.34;5065823;28;20546;-78
2021/09/24 02:21:44;;;;;;;6.73;5.73;;;12.80;84.50;;;11.82;86.78;97990.84;5066146;28;20456;-78
2021/09/24 02:24:11;;;;;;;7.10;6.30;;;12.80;84.20;;;11.75;86.59;97989.03;5066244;28;20477;-78
2021/09/24 02:26:38;;;;;;;7.03;6.33;;;12.80;84.50;;;11.82;86.30;97994.38;5061937;28;21152;-79
2021/09/24 02:29:05;;;;;;;7.30;6.03;;;12.80;83.80;;;11.72;86.71;97985.94;5066531;28;20456;-78
2021/09/24 02:31:34;;;;;;;7.40;6.73;;;12.70;84.20;;;11.72;86.79;97985.94;5062287;28;20555;-78
2021/09/24 02:34:01;;;;;;;7.80;6.27;;;12.70;84.10;;;11.62;87.19;97998.13;5064120;28;20457;-79
2021/09/24 02:36:28;;;;;;;7.07;6.37;;;12.70;84.40;;;11.58;87.31;98001.50;5061497;28;20539;-79
2021/09/24 02:38:55;;;;;;;6.83;6.00;;;12.60;84.80;;;11.65;86.90;98001.44;5059596;28;20862;-79
2021/09/24 02:41:22;;;;;;;7.80;6.33;;;12.60;84.70;;;11.52;87.88;98007.78;5064513;28;20457;-79
2021/09/24 02:43:49;;;;;;;7.33;6.63;;;12.50;85.00;;;11.55;87.76;98001.94;5064771;28;20555;-80
2021/09/24 02:46:16;;;;;;;10.03;7.10;;;12.50;85.50;;;11.38;88.17;97990.84;5064140;28;21035;-80
2021/09/24 02:48:44;;;;;;;7.67;6.90;;;12.50;85.60;;;11.45;87.58;98005.16;5062323;28;20467;-79
2021/09/24 02:51:11;;;;;;;6.40;5.67;;;12.40;85.70;;;11.46;88.11;98010.31;5058220;28;20519;-80
2021/09/24 02:53:38;;;;;;;7.97;7.10;;;12.40;85.90;;;11.51;87.71;98008.81;5057354;28;21073;-80
2021/09/24 02:56:05;;;;;;;7.13;6.43;;;12.40;86.00;;;11.41;87.95;98022.84;5061281;28;20464;-80
2021/09/24 02:58:33;;;;;;;6.87;6.10;;;12.40;86.10;;;11.42;88.27;98019.09;5064970;28;20473;-79
2021/09/24 03:01:00;;;;;;;7.27;6.27;;;12.40;86.50;;;11.28;89.05;98013.78;5057171;28;20457;-79
2021/09/24 03:03:27;;;;;;;7.70;6.97;;;12.30;86.80;;;11.32;88.93;98020.44;5062434;28;20509;-79
2021/09/24 03:05:55;;;;;;;8.60;6.90;;;12.30;86.80;;;11.32;88.50;98020.44;5063191;28;20739;-80
2021/09/24 03:08:22;;;;;;;6.63;6.03;;;12.30;87.00;;;11.30;88.71;98009.03;5063879;28;20541;-80
2021/09/24 03:10:49;;;;;;;7.70;7.00;;;12.30;86.90;;;11.37;89.15;98016.25;5066141;28;20492;-80
2021/09/24 03:13:16;;;;;;;7.33;6.63;;;12.30;87.70;;;11.29;88.48;98015.44;5061647;28;20467;-80
2021/09/24 03:15:43;;;;;;;7.40;6.70;;;12.40;86.80;;;11.27;88.43;98022.97;5063890;28;20917;-80
2021/09/24 03:18:10;;;;;;;8.20;7.07;;;12.30;87.10;;;11.26;89.20;98029.41;5066362;28;20460;-79
2021/09/24 03:20:37;;;;;;;8.00;6.97;;;12.30;87.40;;;11.30;88.69;98030.66;5069138;28;20495;-78
2021/09/24 03:23:06;;;;;;;7.53;6.90;;;12.30;87.60;;;11.21;89.07;98031.97;5065158;28;20623;-78
2021/09/24 03:25:33;;;;;;;9.50;7.50;;;12.20;88.00;;;11.20;89.14;98028.41;5065908;28;20473;-80
2021/09/24 03:28:00;;;;;;;12.43;7.17;;;12.20;88.60;;;11.37;88.79;98032.47;5067845;28;20972;-79
2021/09/24 03:30:27;;;;;;;7.77;7.07;;;12.20;88.20;;;11.26;89.14;98032.13;5065703;28;20446;-80
2021/09/24 03:32:54;;;;;;;7.80;7.07;;;12.30;88.10;;;11.19;89.17;98034.06;5061945;28;20502;-79
2021/09/24 03:35:21;;;;;;;10.43;7.63;;;12.20;88.10;;;11.20;88.90;98030.31;5064525;28;20483;-79
2021/09/24 03:37:48;;;;;;;9.40;7.33;;;12.20;88.30;;;11.14;89.56;98044.69;5065501;28;20530;-78
2021/09/24 03:40:17;;;;;;;8.07;7.20;;;12.20;88.80;;;11.32;89.16;98036.69;5067585;28;21015;-78
2021/09/24 03:42:44;;;;;;;8.03;7.20;;;12.30;88.70;;;11.30;88.76;98038.78;5066564;28;20555;-77
2021/09/24 03:45:11;;;;;;;8.30;7.50;;;12.30;88.30;;;11.33;89.30;98042.91;5066374;28;20953;-79
2021/09/24 03:47:38;;;;;;;8.90;8.00;;;12.30;88.20;;;11.51;87.83;98034.03;5063820;28;21039;-79
2021/09/24 03:50:08;;;;;;;7.90;7.10;;;12.50;87.50;;;11.60;87.77;98031.84;5068636;28;20461;-79
2021/09/24 03:52:35;;;;;;;7.03;6.33;;;12.60;87.00;;;11.61;87.77;98028.94;5067153;28;21617;-78
2021/09/24 03:55:03;;;;;;;7.87;7.07;;;12.60;86.20;;;11.81;86.18;98041.47;5062966;28;20563;-78
2021/09/24 03:57:31;;;;;;;8.23;7.43;;;12.70;85.40;;;11.76;86.65;98036.72;5061571;28;20507;-78
2021/09/24 03:59:58;;;;;;;11.17;8.17;;;12.80;85.10;;;11.84;86.63;98042.91;5065450;28;20577;-79
2021/09/24 04:02:25;;;;;;;8.33;7.50;;;12.80;84.80;;;11.97;85.61;98042.75;5062886;28;20463;-78
2021/09/24 04:04:52;;;;;;;8.03;7.20;;;12.90;84.40;;;11.98;85.63;98043.59;5065888;28;20559;-79
2021/09/24 04:07:19;;;;;;;10.83;7.50;;;13.00;84.20;;;11.96;85.53;98046.50;5062004;28;20829;-80
2021/09/24 04:09:47;;;;;;;7.77;6.97;;;13.00;83.90;;;11.88;86.08;98055.75;5066715;28;20503;-79
2021/09/24 04:12:14;;;;;;;9.13;8.07;;;12.90;84.20;;;11.94;86.22;98054.03;5066474;28;20530;-79
2021/09/24 04:14:42;;;;;;;8.70;7.90;;;12.90;84.60;;;11.92;85.86;98050.72;5063112;28;20484;-78
2021/09/24 04:17:09;;;;;;;8.57;7.67;;;12.90;84.20;;;11.98;85.77;98054.41;5069955;28;20852;-82
2021/09/24 04:19:36;;;;;;;8.50;7.70;;;12.90;84.30;;;11.96;85.05;98051.09;5062942;28;20564;-81
2021/09/24 04:22:04;;;;;;;8.10;6.93;;;13.00;83.90;;;11.92;85.53;98060.72;5059021;28;20560;-82
2021/09/24 04:24:31;;;;;;;9.07;8.13;;;12.90;83.90;;;11.80;86.51;98058.75;5064160;28;20487;-81
2021/09/24 04:26:58;;;;;;;8.10;7.10;;;12.90;84.20;;;11.85;86.61;98061.59;5061863;28;20469;-81
2021/09/24 04:29:25;;;;;;;10.10;7.97;;;12.90;84.60;;;11.90;85.70;98059.09;5061557;28;21008;-82
2021/09/24 04:31:53;;;;;;;7.63;6.93;;;13.00;84.10;;;12.08;85.62;98068.31;5061229;28;20590;-79
2021/09/24 04:34:20;;;;;;;8.70;7.87;;;13.00;84.00;;;12.18;85.82;98071.31;5065812;28;21039;-78
2021/09/24 04:36:47;;;;;;;10.43;7.87;;;13.10;84.40;;;12.15;85.64;98068.25;5068457;28;20449;-78
2021/09/24 04:39:14;;;;;;;11.43;7.87;;;13.10;83.50;;;12.16;85.78;98068.00;5067627;28;20880;-78
2021/09/24 04:41:41;;;;;;;8.63;7.80;;;13.10;84.10;;;12.31;84.45;98069.50;5061233;28;20453;-78
2021/09/24 04:44:08;;;;;;;8.53;7.73;;;13.30;83.30;;;12.34;84.69;98069.06;5063788;28;20484;-80
2021/09/24 04:46:35;;;;;;;9.93;8.20;;;13.30;83.30;;;12.37;84.59;98073.19;5064762;28;20496;-78
2021/09/24 04:49:04;;;;;;;15.60;8.87;;;13.30;83.10;;;12.49;84.76;98071.41;5064856;28;20522;-75
2021/09/24 04:51:31;;;;;;;9.10;8.20;;;13.40;83.60;;;12.45;84.22;98071.00;5059988;28;20460;-77
2021/09/24 04:53:58;;;;;;;8.40;7.50;;;13.40;82.60;;;12.49;83.92;98075.97;5067721;28;20694;-78
2021/09/24 04:56:25;;;;;;;11.40;8.17;;;13.50;82.40;;;12.53;83.34;98079.91;5065244;28;20488;-78
2021/09/24 04:58:52;;;;;;;11.20;7.43;;;13.40;82.00;;;12.53;83.43;98082.63;5066873;28;20460;-77
2021/09/24 05:01:19;;;;;;;9.53;8.00;;;13.50;81.80;;;12.55;82.93;98085.94;5061052;28;20544;-77
2021/09/24 05:03:46;;;;;;;8.97;7.37;;;13.50;81.50;;;12.43;83.47;98083.13;5065684;28;20835;-77
2021/09/24 05:06:14;;;;;;;12.17;8.30;;;13.40;81.40;;;12.38;83.65;98089.25;5068227;28;20452;-77
2021/09/24 05:08:41;;;;;;;8.07;7.30;;;13.40;81.90;;;12.51;83.07;98082.84;5063024;28;20526;-71
2021/09/24 05:11:08;;;;;;;12.97;8.80;;;13.40;81.70;;;12.53;83.12;98082.63;5064395;28;20540;-71
2021/09/24 05:13:35;;;;;;;9.40;8.30;;;13.40;81.70;;;12.61;82.47;98080.44;5063858;28;20494;-75
2021/09/24 05:16:02;;;;;;;12.43;9.47;;;13.50;81.40;;;12.32;83.92;98082.00;5063033;28;20555;-67
2021/09/24 05:18:29;;;;;;;9.93;8.37;;;13.40;81.90;;;12.28;84.52;98088.94;5060782;28;20489;-68
2021/09/24 05:20:56;;;;;;;8.93;7.40;;;13.30;81.90;;;12.62;82.95;98097.50;5064586;28;20475;-68
2021/09/24 05:23:25;;;;;;;11.17;8.33;;;13.50;81.80;;;12.56;83.30;98093.00;5065730;28;20544;-69
2021/09/24 05:25:52;;;;;;;9.70;8.70;;;13.50;81.50;;;12.59;82.59;98100.69;5057962;28;20560;-69
2021/09/24 05:28:19;;;;;;;9.00;7.50;;;13.60;81.00;;;12.29;83.92;98099.56;5065171;28;20964;-73
2021/09/24 05:30:46;;;;;;;11.00;9.30;;;13.40;81.40;;;12.35;83.72;98097.81;5063550;28;20549;-66
2021/09/24 05:33:13;;;;;;;9.77;8.10;;;13.40;81.70;;;12.55;83.17;98103.00;5068486;28;20452;-66
2021/09/24 05:35:40;;;;;;;9.57;8.67;;;13.40;81.40;;;12.69;82.03;98103.69;5060074;28;20472;-67
2021/09/24 05:38:07;;;;;;;8.93;8.03;;;13.60;80.90;;;12.57;82.74;98100.06;5059308;28;20476;-67
2021/09/24 05:40:35;;;;;;;9.10;8.17;;;13.60;80.80;;;12.65;82.25;98097.03;5057793;28;20616;-66
2021/09/24 05:43:21;;;;;;;9.90;8.90;;;13.60;80.60;;;12.71;81.83;98092.59;5060247;28;20590;-66
2021/09/24 05:45:48;;;;;;;11.83;8.60;;;13.70;80.40;;;12.77;81.61;98096.28;5054519;28;20777;-67
2021/09/24 05:48:15;;;;;;;9.60;8.60;;;13.70;80.00;;;12.77;81.91;98099.84;5065865;28;20460;-66
2021/09/24 05:50:42;;;;;;;10.80;9.53;;;13.70;80.60;;;12.85;81.36;98104.13;5058540;28;20472;-66
2021/09/24 05:53:08;;;;;;;10.47;8.70;;;13.80;79.80;;;12.79;82.18;98099.59;5059978;28;20489;-66
2021/09/24 05:55:38;;;;;;;9.70;8.70;;;13.80;79.90;;;12.78;81.75;98096.06;5062351;28;20912;-66
2021/09/24 05:58:05;;;;;;;9.80;8.10;;;13.80;79.70;;;12.81;81.59;98089.34;5064524;28;20476;-67
2021/09/24 06:00:32;;;;;;;11.63;8.50;;;13.80;79.60;;;12.95;81.14;98096.25;5058032;28;20559;-67
2021/09/24 06:02:59;;;;;;;11.30;8.60;;;13.90;79.50;;;12.96;81.10;98097.09;5056229;28;20457;-66
2021/09/24 06:05:26;;;;;;;9.93;8.93;;;13.90;79.30;;;13.03;80.80;98101.38;5058655;28;20483;-67
2021/09/24 06:07:53;;;;;;;11.30;9.27;;;13.90;79.10;;;12.99;81.05;98105.59;5066943;28;20474;-66
2021/09/24 06:10:20;;;;;;;14.50;10.20;;;13.90;79.00;;;12.97;80.58;98107.72;5067838;28;20547;-67
2021/09/24 06:12:49;;;;;;;10.87;8.20;;;14.00;78.70;;;13.17;80.26;98109.34;5061503;28;20905;-67
2021/09/24 06:15:18;;;;;;;10.47;9.00;;;14.10;78.70;;;13.00;81.04;98107.25;5063632;28;21023;-66
2021/09/24 06:17:45;;;;;;;10.73;9.30;;;14.00;78.60;;;12.91;81.40;98111.34;5072894;28;20464;-67
2021/09/24 06:20:13;;;;;;;9.60;8.70;;;13.90;78.90;;;13.10;80.60;98114.00;5070910;28;20555;-66
2021/09/24 06:22:41;;;;;;;10.10;9.10;;;14.10;78.70;;;13.18;80.15;98116.41;5067187;28;20489;-67
2021/09/24 06:25:10;;;;;;;13.83;8.77;;;14.10;78.30;;;13.27;79.82;98114.19;5068078;28;20579;-66
2021/09/24 06:27:37;;;;;;;10.60;9.50;;;14.20;78.10;;;13.10;80.49;98114.00;5064764;28;20469;-66
2021/09/24 06:30:09;;;;;;;10.87;9.70;;;14.20;78.20;;;13.25;79.85;98113.59;5066302;28;20670;-68
2021/09/24 06:32:36;;;;;;;9.53;8.53;;;14.20;78.40;;;13.15;80.40;98111.44;5062421;28;20479;-66
2021/09/24 06:35:05;;;;;;;13.63;9.60;;;14.20;78.00;;;13.29;79.93;98117.50;5061078;28;20609;-66
2021/09/24 06:37:32;;;;;;;12.33;10.43;;;14.20;78.10;;;13.26;79.95;98117.97;5061419;28;20958;-66
2021/09/24 06:39:59;;;;;;;13.70;9.87;;;14.30;77.90;;;13.36;79.54;98111.97;5063734;28;21050;-66
2021/09/24 06:42:26;;;;;;;10.43;9.33;;;14.30;77.70;;;13.52;79.06;98121.41;5057567;28;20552;-65
2021/09/24 06:44:57;;;;;;;11.90;8.90;;;14.40;77.30;;;13.36;79.68;98117.41;5063839;28;20468;-65
2021/09/24 06:47:25;;;;;;;11.10;8.97;;;14.40;77.40;;;13.46;79.34;98123.16;5065530;28;20548;-66
2021/09/24 06:49:52;;;;;;;10.30;9.20;;;14.40;77.40;;;13.53;78.96;98125.75;5065410;28;20499;-66
2021/09/24 06:52:22;;;;;;;17.53;10.33;;;14.50;76.90;;;13.45;79.12;98125.03;5064747;28;20543;-66
2021/09/24 06:54:49;;;;;;;12.67;8.57;;;14.50;76.80;;;13.52;79.15;98122.19;5065283;28;20496;-67
2021/09/24 06:57:16;;;;;;;9.60;8.63;;;14.50;76.90;;;13.71;78.03;98120.25;5061956;28;20555;-66
2021/09/24 06:59:43;;;;;;;11.37;9.57;;;14.60;76.50;;;13.68;78.18;98130.75;5072118;28;20976;-66
2021/09/24 07:02:11;;;;;;;11.30;8.60;;;14.60;76.20;;;13.55;78.62;98127.16;5071051;28;20540;-67
2021/09/24 07:04:39;;;;;;;9.40;8.50;;;14.60;76.30;;;13.67;78.58;98126.38;5061207;28;20477;-66
2021/09/24 07:07:08;;;;;;;11.27;10.17;;;14.60;76.30;;;13.79;78.11;98131.81;5066032;28;20567;-66
2021/09/24 07:09:35;;;;;;;11.80;10.70;;;14.70;76.10;;;13.80;77.98;98134.31;5067988;28;20452;-67
2021/09/24 07:12:02;;;;;;;11.17;9.40;;;14.80;76.00;;;13.79;77.68;98138.09;5067187;28;20449;-67
2021/09/24 07:14:31;;;;;;;11.93;10.27;;;14.80;75.60;;;14.02;76.54;98139.16;5063938;28;20509;-67
2021/09/24 07:16:59;;;;;;;12.67;9.60;;;14.90;75.30;;;14.02;76.21;98136.44;5083016;28;20460;-66
2021/09/24 07:19:27;;;;;;;10.70;9.30;;;15.00;74.80;;;13.93;77.44;98137.88;5064933;28;20482;-67
2021/09/24 07:21:55;;;;;;;15.07;9.30;;;15.00;74.90;;;14.13;76.31;98141.06;5069979;28;20889;-66
2021/09/24 07:24:22;;;;;;;9.27;8.47;;;15.00;74.60;;;14.01;76.57;98135.63;5068795;28;20575;-66
2021/09/24 07:26:49;;;;;;;9.90;9.00;;;15.00;74.40;;;14.09;76.13;98131.75;5064241;28;20464;-66
2021/09/24 07:29:17;;;;;;;12.40;9.07;;;15.10;74.30;;;14.16;76.18;98137.88;5068965;28;20461;-67
2021/09/24 07:31:44;;;;;;;10.40;9.30;;;15.10;74.10;;;14.28;75.17;98132.47;5068012;28;20468;-67
2021/09/24 07:34:11;;;;;;;9.50;8.60;;;15.20;73.50;;;14.29;75.40;98133.28;5060317;28;20471;-66
2021/09/24 07:36:38;;;;;;;10.73;9.13;;;15.30;73.40;;;14.27;75.65;98133.53;5064686;28;20481;-66
2021/09/24 07:39:07;;;;;;;15.67;9.03;;;15.30;73.30;;;14.48;75.11;98139.41;5063549;28;20992;-66
2021/09/24 07:41:34;;;;;;;9.90;8.90;;;15.40;73.30;;;14.48;74.50;98142.13;5063652;28;21078;-64
2021/09/24 07:44:03;;;;;;;10.60;9.60;;;15.40;72.70;;;14.63;74.63;98146.25;5062619;28;20608;-72
2021/09/24 07:46:31;;;;;;;11.47;8.50;;;15.50;72.80;;;14.58;74.40;98144.25;5056963;28;20479;-68
2021/09/24 07:49:00;;;;;;;10.23;9.20;;;15.50;72.20;;;14.82;73.85;98142.34;5067724;28;20449;-68
2021/09/24 07:51:27;;;;;;;12.87;10.40;;;15.70;72.30;;;14.47;75.03;98147.78;5066273;28;20456;-68
2021/09/24 07:53:54;;;;;;;10.37;9.27;;;15.50;72.00;;;14.68;73.95;98144.47;5068292;28;20945;-68
2021/09/24 07:56:24;;;;;;;9.97;8.97;;;15.60;71.90;;;14.72;74.16;98140.22;5064531;28;20987;-68
2021/09/24 07:58:51;;;;;;;11.27;8.73;;;15.70;71.80;;;14.81;73.97;98146.13;5067643;28;20499;-68
2021/09/24 08:01:19;;;;;;;9.73;8.73;;;15.70;71.60;;;14.94;73.27;98153.22;5067426;28;20551;-68
2021/09/24 08:03:45;;;;;;;12.73;9.00;;;15.80;71.50;;;15.14;72.43;98146.50;5065446;28;20896;-69
2021/09/24 08:06:14;;;;;;;10.17;9.17;;;16.00;71.30;;;15.59;71.01;98142.16;5063965;28;20453;-69
2021/09/24 08:08:41;;;;;;;10.73;8.33;;;16.30;70.70;;;15.65;70.16;98134.91;5067425;28;20457;-70
2021/09/24 08:11:08;;;;;;;10.87;9.80;;;16.50;69.70;;;15.68;70.17;98139.84;5068007;28;21021;-69
2021/09/24 08:13:37;;;;;;;12.10;8.10;;;16.60;69.20;;;15.72;70.24;98151.94;5066833;28;20499;-68
2021/09/24 08:16:04;;;;;;;10.50;9.40;;;16.70;68.90;;;15.71;70.39;98155.72;5068532;28;20567;-69
2021/09/24 08:18:32;;;;;;;10.47;9.47;;;16.60;69.00;;;15.89;69.56;98159.28;5068144;28;20547;-69
2021/09/24 08:20:59;;;;;;;9.63;8.63;;;16.80;68.60;;;15.80;69.88;98154.22;5062469;28;20477;-69
2021/09/24 08:23:27;;;;;;;10.97;9.00;;;16.80;68.60;;;15.84;69.92;98155.38;5064599;28;20456;-69
2021/09/24 08:25:54;;;;;;;12.40;9.70;;;16.80;68.50;;;15.79;69.46;98158.03;5070285;28;20619;-69
2021/09/24 08:28:21;;;;;;;9.90;8.73;;;16.80;68.10;;;15.99;69.81;98170.38;5063070;28;20580;-69
2021/09/24 08:30:50;;;;;;;17.87;9.57;;;16.80;68.40;;;16.04;69.47;98164.19;5067521;28;20543;-70
2021/09/24 08:33:17;;;;;;;9.37;8.23;;;16.90;68.20;;;16.08;68.99;98160.72;5068149;28;20461;-69
2021/09/24 08:35:44;;;;;;;9.67;8.77;;;17.00;67.90;;;15.96;69.24;98158.09;5070119;28;20933;-70
2021/09/24 08:38:13;;;;;;;9.33;8.43;;;17.00;67.80;;;16.18;69.04;98165.50;5064236;28;20489;-68
2021/09/24 08:40:41;;;;;;;10.90;9.63;;;17.00;67.70;;;16.38;67.87;98159.53;5065838;28;20464;-68
2021/09/24 08:43:10;;;;;;;11.90;10.00;;;17.20;67.30;;;16.49;67.96;98159.69;5064995;28;20453;-70
2021/09/24 08:45:38;;;;;;;10.70;8.80;;;17.40;67.30;;;16.74;66.50;98153.78;5063420;28;20495;-69
2021/09/24 08:48:08;;;;;;;9.13;8.20;;;17.50;66.60;;;16.67;66.90;98155.84;5062114;28;20551;-69
2021/09/24 08:50:38;;;;;;;10.40;8.50;;;17.60;66.50;;;16.58;67.10;98155.44;5069752;28;20452;-68
2021/09/24 08:53:08;;;;;;;10.03;8.83;;;17.60;66.40;;;16.50;67.49;98166.81;5067720;28;20481;-68
2021/09/24 08:55:35;;;;;;;12.70;9.30;;;17.50;66.40;;;16.55;67.48;98161.41;5071162;28;20508;-69
2021/09/24 08:58:03;;;;;;;9.60;8.70;;;17.50;66.60;;;16.65;67.10;98152.53;5065882;28;20456;-69
2021/09/24 09:00:32;;;;;;;10.03;8.80;;;17.60;66.40;;;16.97;66.47;98158.16;5066851;28;20480;-70
2021/09/24 09:03:05;;;;;;;8.77;7.83;;;17.80;66.20;;;16.99;66.74;98164.22;5070475;28;21024;-69
2021/09/24 09:05:38;;;;;;;11.30;8.90;;;17.90;66.10;;;17.56;64.84;98159.41;5069818;28;20484;-70
2021/09/24 09:08:14;;;;;;;10.50;8.43;;;18.30;65.70;;;17.68;64.44;98158.41;5062545;28;20464;-69
2021/09/24 09:10:52;;;;;;;8.83;7.97;;;18.50;65.10;;;17.69;63.92;98157.34;5069314;28;20563;-68
2021/09/24 09:13:20;;;;;;;9.77;8.00;;;18.60;64.30;;;17.78;64.32;98169.41;5072005;28;20460;-69
2021/09/24 09:16:00;;;;;;;11.67;8.33;;;18.70;64.60;;;17.50;64.57;98173.25;5070285;28;20484;-69
2021/09/24 09:18:31;;;;;;;9.30;8.40;;;18.50;64.20;;;17.69;64.47;98162.78;5074722;28;20494;-67
2021/09/24 09:21:01;;;;;;;9.57;8.30;;;18.60;64.40;;;17.88;63.76;98162.41;5063206;28;21018;-68
2021/09/24 09:23:29;;;;;;;9.83;8.50;;;18.70;64.30;;;18.19;62.95;98157.22;5064313;28;20444;-70
2021/09/24 09:26:00;;;;;;;8.93;8.13;;;18.90;64.10;;;18.38;61.72;98163.91;5066003;28;20482;-70
2021/09/24 09:28:35;;;;;;;8.47;7.77;;;19.10;63.10;;;18.25;62.53;98162.47;5065978;28;20487;-68
2021/09/24 09:31:16;;;;;;;8.87;7.97;;;19.20;63.10;;;18.08;63.17;98173.53;5065266;28;21009;-69
2021/09/24 09:33:43;;;;;;;11.40;8.13;;;19.00;63.30;;;18.29;62.60;98172.88;5057456;28;20509;-68
2021/09/24 09:36:12;;;;;;;9.43;7.80;;;19.10;63.30;;;18.26;62.35;98174.22;5058432;28;20543;-70
2021/09/24 09:38:42;;;;;;;9.30;7.90;;;19.10;63.00;;;18.29;62.21;98154.56;5064195;28;20575;-69
2021/09/24 09:41:15;;;;;;;9.70;8.67;;;19.20;63.10;;;18.44;62.39;98167.50;5067000;28;20572;-69
2021/09/24 09:43:44;;;;;;;8.57;7.53;;;19.30;63.10;;;18.38;62.17;98165.84;5066914;28;20467;-69
2021/09/24 09:46:18;;;;;;;9.80;8.20;;;19.30;62.80;;;18.43;61.85;98171.34;5063793;28;21047;-69
2021/09/24 09:49:06;;;;;;;8.97;7.93;;;19.30;62.50;;;18.51;62.19;98170.03;5064532;28;20449;-69
2021/09/24 09:51:35;;;;;;;8.80;7.70;;;19.30;62.80;;;18.46;62.02;98153.59;5063825;28;20516;-69
2021/09/24 09:54:03;;;;;;;8.50;7.60;;;19.40;62.50;;;18.43;62.08;98160.41;5062691;28;20503;-69
2021/09/24 09:56:39;;;;;;;9.40;7.80;;;19.40;62.40;;;18.91;60.62;98160.41;5060915;28;20464;-69
2021/09/24 09:59:28;;;;;;;8.23;7.43;;;19.60;62.30;;;18.57;62.31;98158.00;5056393;28;20543;-69
2021/09/24 10:02:11;;;;;;;8.27;7.27;;;19.50;62.60;;;19.30;59.72;98155.63;5065840;28;20507;-70
2021/09/24 10:04:40;;;;;;;8.70;7.80;;;19.90;62.20;;;19.54;59.58;98159.53;5067305;28;20532;-68
2021/09/24 10:07:16;;;;;;;9.03;7.20;;;20.20;62.10;;;19.58;58.32;98145.28;5063836;28;20456;-69
2021/09/24 10:09:45;;;;;;;8.53;7.17;;;20.40;61.00;;;19.67;58.34;98157.38;5066366;28;20456;-69
2021/09/24 10:12:21;;;;;;;9.10;8.20;;;20.50;61.00;;;19.69;58.01;98157.91;5059962;28;20464;-69
2021/09/24 10:14:51;;;;;;;8.67;7.77;;;20.50;60.40;;;19.69;58.23;98168.88;5060724;28;20976;-69
2021/09/24 10:17:20;;;;;;;8.50;7.20;;;20.60;60.40;;;19.59;58.37;98166.13;5066148;28;20468;-69
2021/09/24 10:19:49;;;;;;;7.40;6.67;;;20.60;60.30;;;19.89;57.52;98167.25;5069462;28;20948;-70
2021/09/24 10:22:17;;;;;;;8.97;7.27;;;20.70;60.20;;;20.00;57.21;98166.19;5065040;28;20495;-69